M I D A S
Marine Information and Data Acquisition System
Tripno 2147 of the Zeeleeuw from 2011-07-18 07:07:04 to 2011-07-18 13:53:03
Back to CruiseResearch ActivitiesStationsMapUnderway DataData graphs

EquipmentUnitsComments
TimeDGPSUTC
LatitudeDGPSDM.mWGS84
LongitudeDGPSDM.mWGS84
SpeedMeteo Stationm/sRelative wind speed
DirectionMeteo StationdegRelative wind direction
TemperatureMeteo Stationdeg CelciusAir temperature
PressureMeteo StationPaAtmospheric pressure
HumidityMeteo Station%Relative humidity
Missing or incorrect values are displayed as -999
Metereological data collected by the RV Zeeleeuw from 2011-07-18 06:54:56 to 2011-07-18 15:36:40
Time Latitude Longitude Speed Direction Temperature Pressure Humidity
2011-07-18 06:56 51°13.658 2°55.941 3 55 13.9 99700 46
2011-07-18 06:57 51°13.679 2°55.844 4.4 25 13.9 99700 47
2011-07-18 06:58 51°13.691 2°55.768 6.5 53 13.9 99690 47
2011-07-18 06:59 51°13.7 2°55.769 5.1 55 13.8 99710 47
2011-07-18 07:00 51°13.698 2°55.755 2 62 13.9 99710 45
2011-07-18 07:01 51°13.784 2°55.683 3.3 309 13.9 99710 47
2011-07-18 07:02 51°13.907 2°55.58 3.3 307 14 99710 48
2011-07-18 07:03 51°14.041 2°55.484 1.5 302 14 99700 47
2011-07-18 07:04 51°14.182 2°55.38 3.9 305 14 99700 47
2011-07-18 07:05 51°14.314 2°55.249 5.5 307 14 99700 46
2011-07-18 07:06 51°14.458 2°55.094 7.9 302 14 99690 47
2011-07-18 07:07 51°14.602 2°54.906 9.5 306 14 99690 47
2011-07-18 07:08 51°14.778 2°54.725 7.8 305 14.1 99700 46
2011-07-18 07:09 51°14.965 2°54.569 12 305 14.2 99700 47
2011-07-18 07:10 51°15.153 2°54.429 5.8 310 14.3 99690 47
2011-07-18 07:11 51°15.357 2°54.382 5 310 14.2 99710 47
2011-07-18 07:12 51°15.567 2°54.342 5.7 303 14.3 99690 48
2011-07-18 07:13 51°15.772 2°54.285 7.6 308 14.3 99700 48
2011-07-18 07:14 51°15.976 2°54.338 7.2 55 14.3 99710 48
2011-07-18 07:15 51°16.139 2°54.356 6 302 14.3 99690 47
2011-07-18 07:16 51°16.224 2°54.301 6.7 303 14.4 99720 46
2011-07-18 07:17 51°16.258 2°54.272 10.9 59 14.5 99720 48
2011-07-18 07:18 51°16.264 2°54.272 7.9 305 14.5 99710 48
2011-07-18 07:19 51°16.269 2°54.275 7.9 304 14.5 99730 47
2011-07-18 07:20 51°16.271 2°54.281 10.4 305 14.6 99730 47
2011-07-18 07:21 51°16.272 2°54.287 9.8 305 14.6 99730 47
2011-07-18 07:22 51°16.274 2°54.292 10.4 305 14.5 99730 47
2011-07-18 07:23 51°16.276 2°54.293 8.1 305 14.6 99730 47
2011-07-18 07:24 51°16.313 2°54.258 16.1 308 14.5 99730 46
2011-07-18 07:25 51°16.38 2°54.104 4.1 304 14.5 99660 47
2011-07-18 07:26 51°16.45 2°53.849 4.7 304 14.6 99650 48
2011-07-18 07:27 51°16.554 2°53.58 4.4 305 14.6 99650 47
2011-07-18 07:28 51°16.686 2°53.339 11.7 306 14.5 99670 47
2011-07-18 07:29 51°16.852 2°53.142 4.4 304 14.5 99680 47
2011-07-18 07:30 51°17.012 2°52.944 13.3 308 14.5 99660 48
2011-07-18 07:31 51°17.168 2°52.726 7.2 305 14.6 99680 47
2011-07-18 07:32 51°17.336 2°52.53 4.4 305 14.5 99670 46
2011-07-18 07:33 51°17.517 2°52.381 9 304 14.6 99680 47
2011-07-18 07:34 51°17.712 2°52.284 10.1 305 14.6 99680 47
2011-07-18 07:35 51°17.896 2°52.146 13.2 306 14.6 99670 47
2011-07-18 07:36 51°18.059 2°51.956 7.1 304 14.7 99650 48
2011-07-18 07:37 51°18.206 2°51.719 6.7 303 14.7 99630 47
2011-07-18 07:38 51°18.347 2°51.485 18.1 304 14.6 99660 47
2011-07-18 07:39 51°18.484 2°51.239 19.2 304 14.8 99640 47
2011-07-18 07:40 51°18.546 2°51.041 15 303 14.8 99640 45
2011-07-18 07:41 51°18.564 2°50.988 14.8 309 14.8 99670 48
2011-07-18 07:42 51°18.572 2°50.991 8 310 14.8 99690 47
2011-07-18 07:43 51°18.577 2°50.994 10.6 54 14.8 99720 47
2011-07-18 07:44 51°18.581 2°50.999 7 308 14.8 99730 47
2011-07-18 07:45 51°18.583 2°51.002 6.9 306 14.8 99710 47
2011-07-18 07:46 51°18.584 2°51.007 6.9 305 15 99710 47
2011-07-18 07:47 51°18.584 2°51.013 4.4 302 15 99700 47
2011-07-18 07:48 51°18.585 2°51.021 11.1 282 14.9 99710 45
2011-07-18 07:49 51°18.586 2°51.027 5.7 306 14.9 99710 47
2011-07-18 07:50 51°18.619 2°51.026 5.2 57 14.9 99720 46
2011-07-18 07:51 51°18.65 2°51.09 11.3 26 15 99700 47
2011-07-18 07:52 51°18.605 2°51.164 15.8 2 15.1 99670 47
2011-07-18 07:53 51°18.472 2°51.273 14.1 4 15.1 99650 47
2011-07-18 07:54 51°18.3 2°51.435 16.1 360 15 99630 47
2011-07-18 07:55 51°18.123 2°51.594 5.6 359 15 99630 46
2011-07-18 07:56 51°17.936 2°51.726 21 357 15 99660 45
2011-07-18 07:57 51°17.749 2°51.852 7.2 1 15 99660 47
2011-07-18 07:58 51°17.56 2°51.982 12 353 14.9 99670 47
2011-07-18 07:59 51°17.369 2°52.116 17.2 359 14.8 99660 46
2011-07-18 08:00 51°17.177 2°52.256 6.9 357 14.8 99660 47
2011-07-18 08:01 51°16.994 2°52.388 16.5 355 14.9 99650 47
2011-07-18 08:02 51°16.808 2°52.525 15.4 354 14.8 99650 47
2011-07-18 08:03 51°16.62 2°52.657 2.6 359 14.9 99660 46
2011-07-18 08:04 51°16.427 2°52.776 18 357 15 99660 45
2011-07-18 08:05 51°16.237 2°52.903 6 1 15.1 99640 45
2011-07-18 08:06 51°16.046 2°53.034 11.4 354 15.1 99650 45
2011-07-18 08:07 51°15.858 2°53.156 15.8 354 15.2 99650 45
2011-07-18 08:08 51°15.671 2°53.286 7.7 -999 15.2 99660 45
2011-07-18 08:09 51°15.489 2°53.434 17.4 358 15.3 99660 44
2011-07-18 08:10 51°15.303 2°53.568 13.7 354 15.3 99660 45
2011-07-18 08:11 51°15.106 2°53.656 15.6 350 15.4 99670 45
2011-07-18 08:12 51°14.907 2°53.738 8.3 355 15.3 99670 43
2011-07-18 08:13 51°14.703 2°53.774 5 283 15.3 99670 45
2011-07-18 08:14 51°14.494 2°53.76 9.5 343 15.3 99680 44
2011-07-18 08:15 51°14.302 2°53.604 9.3 281 15.3 99680 44
2011-07-18 08:16 51°14.166 2°53.329 8.7 325 15.4 99690 44
2011-07-18 08:17 51°14.052 2°53.03 10.3 306 15.4 99680 44
2011-07-18 08:18 51°13.926 2°52.741 9 328 15.4 99680 44
2011-07-18 08:19 51°13.797 2°52.455 14.6 325 15.4 99690 44
2011-07-18 08:20 51°13.662 2°52.178 19.5 328 15.4 99690 43
2011-07-18 08:21 51°13.539 2°51.885 5.7 304 15.4 99690 44
2011-07-18 08:22 51°13.422 2°51.587 8.5 279 15.4 99700 44
2011-07-18 08:23 51°13.301 2°51.292 14.6 305 15.5 99700 45
2011-07-18 08:24 51°13.183 2°50.995 4.3 284 15.5 99700 44
2011-07-18 08:25 51°13.064 2°50.699 5.8 327 15.5 99710 45
2011-07-18 08:26 51°12.949 2°50.393 4.6 327 15.5 99690 44
2011-07-18 08:27 51°12.843 2°50.094 19.5 328 15.5 99670 44
2011-07-18 08:28 51°12.73 2°49.793 8.5 324 15.5 99700 42
2011-07-18 08:29 51°12.636 2°49.474 6.4 326 15.5 99710 44
2011-07-18 08:30 51°12.531 2°49.163 8.8 326 15.6 99710 44
2011-07-18 08:31 51°12.425 2°48.852 9.3 325 15.6 99690 44
2011-07-18 08:32 51°12.335 2°48.531 3.4 325 15.7 99710 44
2011-07-18 08:33 51°12.242 2°48.207 20.8 326 15.7 99690 44
2011-07-18 08:34 51°12.156 2°47.892 9.9 303 15.7 99700 44
2011-07-18 08:35 51°12.076 2°47.557 6.3 325 15.7 99690 44
2011-07-18 08:36 51°11.997 2°47.234 4.4 328 15.9 99690 43
2011-07-18 08:37 51°11.91 2°46.908 5.9 305 15.8 99690 44
2011-07-18 08:38 51°11.827 2°46.579 6.9 281 15.8 99700 43
2011-07-18 08:39 51°11.742 2°46.244 4.7 326 15.8 99710 43
2011-07-18 08:40 51°11.659 2°45.922 8.8 282 15.9 99710 43
2011-07-18 08:41 51°11.581 2°45.587 9.8 282 15.8 99710 43
2011-07-18 08:42 51°11.501 2°45.267 8.3 328 15.8 99690 43
2011-07-18 08:43 51°11.412 2°44.937 3 281 15.9 99710 43
2011-07-18 08:44 51°11.347 2°44.601 4.7 305 15.9 99720 43
2011-07-18 08:45 51°11.283 2°44.269 5.6 280 15.9 99700 44
2011-07-18 08:46 51°11.21 2°43.932 1.5 305 15.9 99710 43
2011-07-18 08:47 51°11.148 2°43.603 6.5 281 15.9 99690 44
2011-07-18 08:48 51°11.078 2°43.272 6 282 15.9 99700 43
2011-07-18 08:49 51°11.009 2°42.938 5.5 280 16 99720 44
2011-07-18 08:50 51°10.946 2°42.601 4.4 282 16 99710 44
2011-07-18 08:51 51°10.877 2°42.291 4.5 282 16 99700 44
2011-07-18 08:52 51°10.874 2°42.139 3.5 280 15.9 99700 42
2011-07-18 08:53 51°10.939 2°42.111 9.8 279 15.9 99810 44
2011-07-18 08:54 51°11.064 2°42.083 3.7 284 15.8 99800 43
2011-07-18 08:55 51°11.127 2°42.051 8.9 284 15.9 99790 43
2011-07-18 08:56 51°11.136 2°42.04 7.7 280 15.9 99790 44
2011-07-18 08:57 51°11.138 2°42.037 9.2 281 16 99790 45
2011-07-18 08:58 51°11.137 2°42.04 4.6 281 15.8 99800 44
2011-07-18 08:59 51°11.133 2°42.042 8.4 281 15.9 99800 44
2011-07-18 09:00 51°11.13 2°42.042 9.3 284 15.9 99800 44
2011-07-18 09:01 51°11.126 2°42.042 4.2 287 15.8 99790 44
2011-07-18 09:02 51°11.145 2°42.017 12.7 281 15.8 99780 44
2011-07-18 09:03 51°11.166 2°41.947 13.1 284 15.8 99750 44
2011-07-18 09:04 51°11.149 2°41.83 17.7 282 15.8 99730 44
2011-07-18 09:05 51°11.077 2°41.608 5.7 282 15.8 99740 43
2011-07-18 09:06 51°11.004 2°41.345 6.2 280 15.8 99720 43
2011-07-18 09:07 51°10.92 2°41.084 5.3 282 15.8 99740 43
2011-07-18 09:08 51°10.842 2°40.818 10 282 15.7 99740 41
2011-07-18 09:09 51°10.764 2°40.55 10 281 15.8 99730 43
2011-07-18 09:10 51°10.68 2°40.288 8.6 282 15.8 99740 43
2011-07-18 09:11 51°10.593 2°40.02 4.5 282 15.8 99760 43
2011-07-18 09:12 51°10.513 2°39.759 8.5 281 15.8 99760 43
2011-07-18 09:13 51°10.434 2°39.492 16.1 281 15.8 99730 43
2011-07-18 09:14 51°10.357 2°39.222 6 281 15.8 99740 43
2011-07-18 09:15 51°10.272 2°38.96 3.7 282 15.7 99700 43
2011-07-18 09:16 51°10.209 2°38.648 23.1 279 15.8 99730 43
2011-07-18 09:17 51°10.188 2°38.309 9.2 281 15.7 99700 44
2011-07-18 09:18 51°10.168 2°37.96 3.3 282 15.7 99700 44
2011-07-18 09:19 51°10.15 2°37.622 6.7 281 15.6 99700 43
2011-07-18 09:20 51°10.14 2°37.275 1.6 282 15.5 99690 43
2011-07-18 09:21 51°10.147 2°36.937 1.1 280 15.4 99700 44
2011-07-18 09:22 51°10.192 2°36.602 3.3 282 15.5 99720 45
2011-07-18 09:23 51°10.242 2°36.274 4.2 282 15.4 99720 44
2011-07-18 09:24 51°10.314 2°35.971 7.4 282 15.3 99710 42
2011-07-18 09:25 51°10.465 2°35.765 4.4 281 15.4 99740 45
2011-07-18 09:26 51°10.646 2°35.681 6.5 286 15.3 99800 44
2011-07-18 09:27 51°10.831 2°35.747 8 80 15.4 99810 46
2011-07-18 09:28 51°10.985 2°35.908 7.2 74 15.4 99800 44
2011-07-18 09:29 51°11.138 2°36.09 8 80 15.4 99820 44
2011-07-18 09:30 51°11.286 2°36.269 4.4 82 15.4 99820 44
2011-07-18 09:31 51°11.437 2°36.461 4.2 82 15.5 99820 43
2011-07-18 09:32 51°11.583 2°36.645 8.8 76 15.5 99820 43
2011-07-18 09:33 51°11.736 2°36.823 6.8 286 15.6 99800 44
2011-07-18 09:34 51°11.902 2°36.964 11.7 78 15.6 99810 44
2011-07-18 09:35 51°12.073 2°37.098 7 74 15.5 99810 44
2011-07-18 09:36 51°12.252 2°37.21 6.1 285 15.6 99800 44
2011-07-18 09:37 51°12.436 2°37.273 8.7 281 15.6 99800 44
2011-07-18 09:38 51°12.623 2°37.362 8.6 280 15.6 99820 44
2011-07-18 09:39 51°12.81 2°37.358 8.8 282 15.6 99810 44
2011-07-18 09:40 51°13.005 2°37.315 15.5 279 15.6 99800 43
2011-07-18 09:41 51°13.194 2°37.28 12.2 281 15.6 99770 43
2011-07-18 09:42 51°13.392 2°37.251 6 282 15.6 99810 43
2011-07-18 09:43 51°13.588 2°37.218 10.4 285 15.7 99800 44
2011-07-18 09:44 51°13.791 2°37.182 8.4 285 15.7 99780 44
2011-07-18 09:45 51°13.988 2°37.14 7.3 286 15.8 99780 45
2011-07-18 09:46 51°14.184 2°37.099 17.2 282 15.7 99770 43
2011-07-18 09:47 51°14.378 2°37.065 7.7 281 15.6 99780 43
2011-07-18 09:48 51°14.568 2°37.035 5 301 15.7 99790 43
2011-07-18 09:49 51°14.763 2°36.997 4.1 307 15.7 99800 44
2011-07-18 09:50 51°14.962 2°36.972 5.8 303 15.7 99770 44
2011-07-18 09:51 51°15.163 2°36.945 6.7 310 15.7 99790 44
2011-07-18 09:52 51°15.364 2°36.91 8.8 306 15.7 99780 44
2011-07-18 09:53 51°15.562 2°36.874 5.5 302 15.7 99770 44
2011-07-18 09:54 51°15.765 2°36.846 13.6 302 15.6 99770 43
2011-07-18 09:55 51°15.964 2°36.854 10.4 302 15.7 99800 44
2011-07-18 09:56 51°16.158 2°36.858 12.2 308 15.6 99790 42
2011-07-18 09:57 51°16.351 2°36.849 13.6 307 15.6 99790 43
2011-07-18 09:58 51°16.528 2°36.829 9 303 15.7 99790 43
2011-07-18 09:59 51°16.602 2°36.788 3.2 309 15.7 99810 44
2011-07-18 10:00 51°16.596 2°36.773 8.4 306 15.8 99770 43
2011-07-18 10:01 51°16.586 2°36.767 8.2 305 15.7 99810 44
2011-07-18 10:02 51°16.578 2°36.765 2.2 305 15.8 99820 44
2011-07-18 10:03 51°16.568 2°36.763 5.9 308 15.7 99820 44
2011-07-18 10:04 51°16.558 2°36.761 5.5 303 15.7 99810 41
2011-07-18 10:05 51°16.548 2°36.762 3.3 305 15.7 99770 43
2011-07-18 10:06 51°16.536 2°36.764 1.9 303 15.7 99780 44
2011-07-18 10:07 51°16.527 2°36.763 16.2 306 15.7 99780 43
2011-07-18 10:08 51°16.553 2°36.745 12.4 306 15.8 99740 43
2011-07-18 10:09 51°16.615 2°36.771 6.8 56 15.7 99780 42
2011-07-18 10:10 51°16.697 2°36.821 9.1 58 15.8 99760 43
2011-07-18 10:11 51°16.787 2°36.864 5.8 52 15.9 99760 44
2011-07-18 10:12 51°16.856 2°36.967 5.9 56 15.7 99780 41
2011-07-18 10:13 51°16.927 2°37.071 5.9 57 15.7 99770 43
2011-07-18 10:14 51°17.002 2°37.179 5.2 49 15.8 99780 43
2011-07-18 10:15 51°17.07 2°37.298 5.2 58 15.7 99780 43
2011-07-18 10:16 51°17.138 2°37.422 12.8 50 15.8 99780 43
2011-07-18 10:17 51°17.208 2°37.541 6.3 54 15.8 99780 43
2011-07-18 10:18 51°17.28 2°37.659 5.4 56 15.8 99780 43
2011-07-18 10:19 51°17.35 2°37.774 8.4 57 15.8 99780 43
2011-07-18 10:20 51°17.417 2°37.891 9.5 55 15.8 99780 42
2011-07-18 10:21 51°17.5 2°38.002 9.8 53 15.8 99780 44
2011-07-18 10:22 51°17.637 2°38.142 5 52 15.8 99790 44
2011-07-18 10:23 51°17.798 2°38.313 7.2 57 15.8 99780 43
2011-07-18 10:24 51°17.927 2°38.545 5.2 50 15.9 99790 45
2011-07-18 10:25 51°18.048 2°38.794 6.9 58 15.8 99790 44
2011-07-18 10:26 51°18.189 2°39.022 6.7 57 15.8 99790 43
2011-07-18 10:27 51°18.333 2°39.232 9 52 15.9 99790 44
2011-07-18 10:28 51°18.482 2°39.433 7.6 51 15.8 99780 42
2011-07-18 10:29 51°18.618 2°39.646 8.7 51 15.8 99790 44
2011-07-18 10:30 51°18.765 2°39.851 9.1 56 15.9 99780 44
2011-07-18 10:31 51°18.913 2°40.038 2.6 57 15.8 99790 44
2011-07-18 10:32 51°19.011 2°40.3 4.7 56 16.1 99790 45
2011-07-18 10:33 51°19.085 2°40.579 7.9 53 16.2 99790 45
2011-07-18 10:34 51°19.165 2°40.856 7.9 54 16.3 99780 42
2011-07-18 10:35 51°19.254 2°41.118 6.7 53 16.5 99800 43
2011-07-18 10:36 51°19.35 2°41.382 6.2 57 16.5 99790 42
2011-07-18 10:37 51°19.449 2°41.632 8.8 53 16.7 99800 43
2011-07-18 10:38 51°19.546 2°41.884 4.8 56 17 99790 44
2011-07-18 10:39 51°19.647 2°42.144 5.2 54 17.2 99790 42
2011-07-18 10:40 51°19.743 2°42.393 10.1 57 16.8 99790 41
2011-07-18 10:41 51°19.834 2°42.647 6.1 57 16.6 99800 41
2011-07-18 10:42 51°19.922 2°42.903 6.1 51 17.1 99810 43
2011-07-18 10:43 51°20.017 2°43.168 8.4 56 17.3 99800 41
2011-07-18 10:44 51°20.107 2°43.443 3.1 57 16.8 99800 39
2011-07-18 10:45 51°20.213 2°43.692 8.9 54 16.8 99810 41
2011-07-18 10:46 51°20.314 2°43.946 7.6 59 17 99810 42
2011-07-18 10:47 51°20.407 2°44.21 5.6 57 17.1 99800 42
2011-07-18 10:48 51°20.518 2°44.465 9.6 54 17.1 99790 40
2011-07-18 10:49 51°20.657 2°44.675 8.3 357 16.7 99790 41
2011-07-18 10:50 51°20.81 2°44.861 5.9 53 16.4 99800 42
2011-07-18 10:51 51°20.953 2°45.066 7.2 55 16.2 99800 42
2011-07-18 10:52 51°21.108 2°45.255 7.5 53 16.1 99800 43
2011-07-18 10:53 51°21.288 2°45.378 6.3 307 16 99790 43
2011-07-18 10:54 51°21.469 2°45.492 10.7 305 16 99780 44
2011-07-18 10:55 51°21.657 2°45.603 10.6 57 16 99770 45
2011-07-18 10:56 51°21.833 2°45.727 8.9 304 15.8 99780 44
2011-07-18 10:57 51°22.014 2°45.859 7.7 56 15.9 99810 44
2011-07-18 10:58 51°22.185 2°45.991 10.5 60 15.9 99800 43
2011-07-18 10:59 51°22.36 2°46.125 8.3 52 15.8 99800 45
2011-07-18 11:00 51°22.537 2°46.251 11.7 53 15.8 99790 42
2011-07-18 11:01 51°22.705 2°46.391 6.4 53 15.9 99800 44
2011-07-18 11:02 51°22.89 2°46.485 11.7 53 15.8 99810 44
2011-07-18 11:03 51°23.065 2°46.599 9.2 54 15.9 99790 44
2011-07-18 11:04 51°23.235 2°46.748 11 55 15.8 99790 43
2011-07-18 11:05 51°23.399 2°46.902 10.5 58 15.7 99790 43
2011-07-18 11:06 51°23.565 2°47.062 10.7 55 15.8 99790 44
2011-07-18 11:07 51°23.728 2°47.215 7.9 50 15.8 99790 44
2011-07-18 11:08 51°23.908 2°47.326 13.1 55 15.7 99770 44
2011-07-18 11:09 51°24.092 2°47.435 11.1 58 15.6 99800 44
2011-07-18 11:10 51°24.263 2°47.572 7.8 304 15.8 99790 44
2011-07-18 11:11 51°24.426 2°47.745 8.1 57 15.7 99790 44
2011-07-18 11:12 51°24.551 2°47.974 4.8 51 16 99800 45
2011-07-18 11:13 51°24.686 2°48.206 11.3 54 16.1 99790 44
2011-07-18 11:14 51°24.825 2°48.383 4.9 57 16 99810 45
2011-07-18 11:15 51°24.91 2°48.475 2.6 55 15.8 99810 45
2011-07-18 11:16 51°24.938 2°48.48 13.5 306 15.5 99800 44
2011-07-18 11:17 51°24.937 2°48.488 7.4 308 15.5 99830 45
2011-07-18 11:18 51°24.934 2°48.504 7 303 15.4 99830 44
2011-07-18 11:19 51°24.93 2°48.52 3.4 305 15.4 99860 45
2011-07-18 11:20 51°24.927 2°48.534 2.9 305 15.3 99880 45
2011-07-18 11:21 51°24.935 2°48.542 3.3 305 15.3 99860 44
2011-07-18 11:22 51°25.012 2°48.548 12.9 55 15.4 99840 45
2011-07-18 11:23 51°25.173 2°48.556 10.5 303 15.5 99840 44
2011-07-18 11:24 51°25.368 2°48.573 8.8 59 15.5 99820 44
2011-07-18 11:25 51°25.567 2°48.569 8.4 304 15.6 99810 44
2011-07-18 11:26 51°25.764 2°48.543 6.8 303 15.6 99800 44
2011-07-18 11:27 51°25.925 2°48.538 15.2 307 15.6 99790 45
2011-07-18 11:28 51°25.972 2°48.515 13.5 304 15.7 99800 45
2011-07-18 11:29 51°25.974 2°48.527 13.2 305 15.7 99810 44
2011-07-18 11:30 51°25.973 2°48.543 14 303 15.7 99810 45
2011-07-18 11:31 51°25.97 2°48.563 11.8 304 15.7 99860 44
2011-07-18 11:32 51°25.969 2°48.578 11.9 305 15.8 99900 44
2011-07-18 11:33 51°25.971 2°48.593 12.8 304 15.8 99890 44
2011-07-18 11:34 51°25.972 2°48.608 3.3 304 15.8 99870 44
2011-07-18 11:35 51°25.97 2°48.628 4.4 304 15.8 99840 44
2011-07-18 11:36 51°25.968 2°48.647 8 307 15.7 99840 44
2011-07-18 11:37 51°25.967 2°48.664 11 304 15.7 99860 43
2011-07-18 11:38 51°25.971 2°48.677 3.7 305 15.8 99750 44
2011-07-18 11:39 51°26.009 2°48.686 4.4 56 15.7 99770 43
2011-07-18 11:40 51°26.037 2°48.76 6.8 33 15.9 99810 43
2011-07-18 11:41 51°26.026 2°48.918 12.1 37 15.9 99770 44
2011-07-18 11:42 51°26.012 2°49.122 14.8 36 15.9 99780 44
2011-07-18 11:43 51°26.003 2°49.33 5.6 36 15.8 99780 44
2011-07-18 11:44 51°26.006 2°49.547 11.5 34 15.8 99790 44
2011-07-18 11:45 51°26.015 2°49.762 13.2 38 15.8 99790 43
2011-07-18 11:46 51°26.026 2°49.976 9.5 45 15.8 99790 44
2011-07-18 11:47 51°26.038 2°50.196 7.5 41 15.8 99790 44
2011-07-18 11:48 51°26.03 2°50.426 9.4 31 15.9 99790 43
2011-07-18 11:49 51°26.014 2°50.678 8.7 37 16.1 99800 45
2011-07-18 11:50 51°25.994 2°50.932 7.1 39 16 99800 44
2011-07-18 11:51 51°25.974 2°51.182 12.8 38 16.1 99800 45
2011-07-18 11:52 51°25.956 2°51.482 9.9 32 15.9 99800 44
2011-07-18 11:53 51°25.945 2°51.817 11.5 32 15.9 99800 44
2011-07-18 11:54 51°25.935 2°52.145 10.3 33 15.9 99810 44
2011-07-18 11:55 51°25.939 2°52.477 11.4 40 15.9 99820 44
2011-07-18 11:56 51°25.951 2°52.804 12 42 15.9 99810 43
2011-07-18 11:57 51°25.956 2°53.128 8.1 29 15.9 99810 44
2011-07-18 11:58 51°25.959 2°53.465 4.9 35 15.9 99820 44
2011-07-18 11:59 51°25.968 2°53.793 9.6 39 16 99820 44
2011-07-18 12:00 51°25.981 2°54.126 8.4 41 16 99820 44
2011-07-18 12:01 51°25.985 2°54.448 11.3 34 16 99820 45
2011-07-18 12:02 51°25.986 2°54.778 5.9 37 16 99810 44
2011-07-18 12:03 51°25.982 2°55.109 10.7 38 15.9 99810 43
2011-07-18 12:04 51°25.98 2°55.444 9.2 37 16.1 99820 43
2011-07-18 12:05 51°25.982 2°55.791 5.6 30 16.1 99820 45
2011-07-18 12:06 51°25.986 2°56.111 9.2 43 16.1 99820 44
2011-07-18 12:07 51°26.006 2°56.453 11.9 33 16.1 99820 44
2011-07-18 12:08 51°26.017 2°56.787 9.4 27 16.1 99820 44
2011-07-18 12:09 51°26.028 2°57.119 14.3 34 16 99820 44
2011-07-18 12:10 51°26.033 2°57.46 9.8 36 15.9 99800 44
2011-07-18 12:11 51°26.037 2°57.796 10.1 37 15.9 99820 44
2011-07-18 12:12 51°26.047 2°58.137 11.9 31 15.9 99830 44
2011-07-18 12:13 51°26.061 2°58.474 14.6 29 15.9 99810 44
2011-07-18 12:14 51°26.08 2°58.811 9.9 33 15.8 99840 44
2011-07-18 12:15 51°26.108 2°59.142 7.5 31 15.9 99830 44
2011-07-18 12:16 51°26.126 2°59.471 11.1 35 15.9 99820 44
2011-07-18 12:17 51°26.133 2°59.81 8.6 38 15.9 99830 45
2011-07-18 12:18 51°26.151 3°0.141 8.9 34 15.9 99830 44
2011-07-18 12:19 51°26.176 3°0.473 12 39 15.9 99840 44
2011-07-18 12:20 51°26.194 3°0.806 5.4 40 15.9 99830 44
2011-07-18 12:21 51°26.209 3°1.145 9.2 35 16 99830 44
2011-07-18 12:22 51°26.217 3°1.479 6.9 30 16 99830 44
2011-07-18 12:23 51°26.225 3°1.823 6 37 15.9 99820 45
2011-07-18 12:24 51°26.235 3°2.162 5.3 34 15.9 99840 45
2011-07-18 12:25 51°26.249 3°2.509 5.1 29 15.9 99830 44
2011-07-18 12:26 51°26.264 3°2.851 4.8 36 15.9 99830 44
2011-07-18 12:27 51°26.27 3°3.201 7.3 33 15.9 99830 45
2011-07-18 12:28 51°26.284 3°3.554 9.7 53 15.6 99840 43
2011-07-18 12:29 51°26.303 3°3.903 8.9 34 15.5 99850 44
2011-07-18 12:30 51°26.31 3°4.253 7.6 81 15.5 99840 45
2011-07-18 12:31 51°26.327 3°4.605 10.7 36 15.6 99840 44
2011-07-18 12:32 51°26.327 3°4.957 8.7 37 15.6 99840 45
2011-07-18 12:33 51°26.32 3°5.308 4.3 44 15.7 99840 45
2011-07-18 12:34 51°26.315 3°5.662 9.1 57 15.7 99840 44
2011-07-18 12:35 51°26.31 3°6.017 5.1 38 15.8 99840 46
2011-07-18 12:36 51°26.31 3°6.371 7 37 15.8 99840 44
2011-07-18 12:37 51°26.307 3°6.727 11.9 37 15.9 99830 46
2011-07-18 12:38 51°26.3 3°7.084 12.3 36 15.9 99840 45
2011-07-18 12:39 51°26.302 3°7.441 8.3 33 15.9 99840 44
2011-07-18 12:40 51°26.34 3°7.796 6.1 44 16.1 99850 45
2011-07-18 12:41 51°26.397 3°8.111 9.1 42 16.1 99850 44
2011-07-18 12:42 51°26.412 3°8.323 9 57 16.1 99830 44
2011-07-18 12:43 51°26.456 3°8.415 15.8 50 16.2 99860 43
2011-07-18 12:44 51°26.465 3°8.462 5.8 281 16.2 99890 42
2011-07-18 12:45 51°26.468 3°8.513 13.5 309 16.2 99940 43
2011-07-18 12:46 51°26.47 3°8.563 5.7 306 16.3 99930 43
2011-07-18 12:47 51°26.473 3°8.616 10.8 306 16.3 99870 43
2011-07-18 12:48 51°26.475 3°8.67 5 305 16.3 99930 43
2011-07-18 12:49 51°26.477 3°8.724 9.5 280 16.4 99890 43
2011-07-18 12:50 51°26.48 3°8.778 17.1 303 16.3 99910 42
2011-07-18 12:51 51°26.506 3°8.775 16 280 16.4 99810 44
2011-07-18 12:52 51°26.481 3°8.74 16.7 283 16.4 99810 42
2011-07-18 12:53 51°26.411 3°8.724 13.9 282 16.4 99820 42
2011-07-18 12:54 51°26.35 3°8.71 15 283 16.4 99810 43
2011-07-18 12:55 51°26.299 3°8.69 16.9 284 16.5 99830 43
2011-07-18 12:56 51°26.285 3°8.643 10.4 279 16.4 99830 42
2011-07-18 12:57 51°26.256 3°8.574 19.2 329 16.4 99840 42
2011-07-18 12:58 51°26.194 3°8.496 9.7 280 16.4 99820 42
2011-07-18 12:59 51°26.129 3°8.396 12.3 283 16.4 99820 42
2011-07-18 13:00 51°26.075 3°8.309 7.2 278 16.5 99820 43
2011-07-18 13:01 51°26.019 3°8.213 16.4 284 16.5 99830 43
2011-07-18 13:02 51°25.973 3°8.114 15.7 284 16.5 99820 42
2011-07-18 13:03 51°25.926 3°8.006 18.3 281 16.4 99810 43
2011-07-18 13:04 51°25.873 3°7.903 16.3 279 16.5 99820 43
2011-07-18 13:05 51°25.81 3°7.811 14.4 283 16.5 99820 44
2011-07-18 13:06 51°25.741 3°7.719 13.3 336 16.4 99830 44
2011-07-18 13:07 51°25.65 3°7.661 8.5 282 16.4 99820 45
2011-07-18 13:08 51°25.542 3°7.598 17.4 341 16.4 99820 45
2011-07-18 13:09 51°25.387 3°7.527 24.1 283 16.3 99800 43
2011-07-18 13:10 51°25.22 3°7.533 9 350 16.3 99780 42
2011-07-18 13:11 51°25.048 3°7.635 14.3 15 16.3 99790 43
2011-07-18 13:12 51°24.937 3°7.95 15.2 12 16.4 99820 43
2011-07-18 13:13 51°24.833 3°8.227 12 17 16.4 99830 42
2011-07-18 13:14 51°24.745 3°8.46 12.3 13 16.4 99820 43
2011-07-18 13:15 51°24.651 3°8.71 11.4 17 16.4 99820 42
2011-07-18 13:16 51°24.545 3°8.942 12.7 10 16.5 99830 44
2011-07-18 13:17 51°24.462 3°9.099 18.3 12 16.5 99830 43
2011-07-18 13:18 51°24.325 3°9.305 12.3 8 16.5 99830 43
2011-07-18 13:19 51°24.16 3°9.556 15.6 9 16.4 99820 42
2011-07-18 13:20 51°24.01 3°9.843 12.8 6 16.5 99840 43
2011-07-18 13:21 51°23.846 3°10.094 7.1 4 16.4 99810 42
2011-07-18 13:22 51°23.674 3°10.319 9.7 8 16.5 99820 43
2011-07-18 13:23 51°23.503 3°10.536 18.4 360 16.5 99820 42
2011-07-18 13:24 51°23.332 3°10.772 12.8 1 16.6 99820 43
2011-07-18 13:25 51°23.193 3°11.065 17.4 14 16.5 99840 42
2011-07-18 13:26 51°23.072 3°11.384 12.4 10 16.6 99850 43
2011-07-18 13:27 51°22.927 3°11.661 11.1 6 16.6 99850 42
2011-07-18 13:28 51°22.779 3°11.942 13.4 3 16.6 99840 43
2011-07-18 13:29 51°22.647 3°12.259 10.4 20 16.6 99840 42
2011-07-18 13:30 51°22.596 3°12.658 9.3 30 16.6 99860 42
2011-07-18 13:31 51°22.575 3°13.046 7.4 43 16.6 99880 43
2011-07-18 13:32 51°22.618 3°13.266 10.2 79 16.8 99890 42
2011-07-18 13:33 51°22.664 3°13.364 10.7 304 16.8 99900 43
2011-07-18 13:34 51°22.68 3°13.461 9.7 287 16.7 99940 42
2011-07-18 13:35 51°22.693 3°13.563 9.4 281 16.6 99920 42
2011-07-18 13:36 51°22.703 3°13.666 7.5 280 16.7 99930 42
2011-07-18 13:37 51°22.711 3°13.771 9.8 284 16.7 99930 41
2011-07-18 13:38 51°22.719 3°13.874 8.2 282 16.7 99950 41
2011-07-18 13:39 51°22.727 3°13.977 8.6 304 16.7 99910 43
2011-07-18 13:40 51°22.768 3°14.042 15.2 279 16.7 99870 42
2011-07-18 13:41 51°22.792 3°14.026 12.7 285 16.7 99850 42
2011-07-18 13:42 51°22.775 3°13.977 10.8 277 16.7 99860 42
2011-07-18 13:43 51°22.761 3°13.882 7.3 280 16.8 99850 42
2011-07-18 13:44 51°22.745 3°13.759 15.2 284 16.8 99850 42
2011-07-18 13:45 51°22.722 3°13.647 13.7 281 16.7 99860 42
2011-07-18 13:46 51°22.702 3°13.526 7.6 308 16.8 99860 42
2011-07-18 13:47 51°22.682 3°13.407 11.6 285 16.8 99830 41
2011-07-18 13:48 51°22.661 3°13.297 8.2 305 16.7 99840 40
2011-07-18 13:49 51°22.635 3°13.181 14.6 304 16.8 99860 42
2011-07-18 13:50 51°22.608 3°13.061 11.8 304 16.8 99850 42
2011-07-18 13:51 51°22.591 3°12.948 16.6 304 16.9 99850 42
2011-07-18 13:52 51°22.568 3°12.835 11 327 16.8 99850 43
2011-07-18 13:53 51°22.543 3°12.718 12.7 304 16.8 99850 41
2011-07-18 13:54 51°22.522 3°12.596 15 302 16.8 99860 42
2011-07-18 13:55 51°22.5 3°12.455 13 324 16.9 99860 43
2011-07-18 13:56 51°22.47 3°12.259 14.2 305 16.9 99860 40
2011-07-18 13:57 51°22.432 3°12.032 23.5 304 16.9 99850 42
2011-07-18 13:58 51°22.394 3°11.818 19.7 305 16.9 99840 42
2011-07-18 13:59 51°22.361 3°11.609 17 304 16.8 99840 42
2011-07-18 14:00 51°22.331 3°11.388 8.2 304 16.8 99870 42
2011-07-18 14:01 51°22.298 3°11.158 15.3 328 16.8 99850 43
2011-07-18 14:02 51°22.269 3°10.925 4.4 303 16.7 99850 42
2011-07-18 14:03 51°22.241 3°10.698 8.1 327 16.7 99850 42
2011-07-18 14:04 51°22.212 3°10.466 5.6 325 16.8 99860 42
2011-07-18 14:05 51°22.173 3°10.254 15.2 328 16.7 99840 43
2011-07-18 14:06 51°22.093 3°10.078 8.3 334 16.6 99850 43
2011-07-18 14:07 51°22.005 3°9.88 9.3 331 16.6 99860 43
2011-07-18 14:08 51°21.923 3°9.671 9.2 335 16.6 99850 43
2011-07-18 14:09 51°21.841 3°9.465 8.8 332 16.6 99860 44
2011-07-18 14:10 51°21.762 3°9.257 10.9 333 16.4 99850 43
2011-07-18 14:11 51°21.688 3°9.041 3.5 327 16.4 99860 44
2011-07-18 14:12 51°21.64 3°8.8 16.2 327 16.5 99850 42
2011-07-18 14:13 51°21.592 3°8.564 5.5 331 16.5 99850 42
2011-07-18 14:14 51°21.534 3°8.329 5.3 331 16.7 99860 44
2011-07-18 14:15 51°21.473 3°8.098 21.2 328 16.7 99850 43
2011-07-18 14:16 51°21.415 3°7.874 4.3 330 16.6 99850 42
2011-07-18 14:17 51°21.36 3°7.656 18.1 331 16.6 99870 43
2011-07-18 14:18 51°21.307 3°7.415 8.8 327 16.2 99860 45
2011-07-18 14:19 51°21.25 3°7.194 20.8 326 16.2 99870 45
2011-07-18 14:20 51°21.196 3°6.963 20.1 325 16.1 99860 42
2011-07-18 14:21 51°21.141 3°6.732 21.5 328 16.2 99850 44
2011-07-18 14:22 51°21.086 3°6.498 16.3 305 16.2 99870 43
2011-07-18 14:23 51°21.036 3°6.267 4.7 329 16.1 99870 42
2011-07-18 14:24 51°20.982 3°6.039 8.7 305 16.2 99850 43
2011-07-18 14:25 51°20.926 3°5.811 9.1 327 16.3 99870 43
2011-07-18 14:26 51°20.813 3°5.644 8.1 336 16.4 99880 43
2011-07-18 14:27 51°20.665 3°5.538 4.1 338 16.3 99860 43
2011-07-18 14:28 51°20.511 3°5.445 22 343 16.4 99860 42
2011-07-18 14:29 51°20.362 3°5.337 5 336 16.4 99870 43
2011-07-18 14:30 51°20.241 3°5.178 8.6 331 16.5 99870 43
2011-07-18 14:31 51°20.11 3°5.044 8.3 338 16.4 99880 43
2011-07-18 14:32 51°19.962 3°4.951 6.2 340 16.4 99870 43
2011-07-18 14:33 51°19.814 3°4.842 4.9 338 16.4 99880 43
2011-07-18 14:34 51°19.673 3°4.72 6.7 335 16.4 99870 42
2011-07-18 14:35 51°19.536 3°4.583 2.8 337 16.4 99870 42
2011-07-18 14:36 51°19.395 3°4.444 18.8 337 16.5 99870 42
2011-07-18 14:37 51°19.264 3°4.28 16.2 334 16.4 99880 43
2011-07-18 14:38 51°19.149 3°4.095 9.6 334 16.3 99890 42
2011-07-18 14:39 51°19.036 3°3.9 14.8 332 16.5 99900 43
2011-07-18 14:40 51°18.942 3°3.692 8.6 330 16.3 99890 42
2011-07-18 14:41 51°18.841 3°3.486 5.8 331 16.4 99890 43
2011-07-18 14:42 51°18.758 3°3.264 17.8 332 16.4 99890 44
2011-07-18 14:43 51°18.688 3°3.027 5.4 328 16.4 99880 43
2011-07-18 14:44 51°18.602 3°2.804 15.8 330 16.4 99890 42
2011-07-18 14:45 51°18.513 3°2.594 2.9 330 16.4 99880 43
2011-07-18 14:46 51°18.429 3°2.378 8.5 330 16.5 99890 43
2011-07-18 14:47 51°18.347 3°2.161 7.7 328 16.6 99880 43
2011-07-18 14:48 51°18.262 3°1.945 8.3 329 16.6 99890 42
2011-07-18 14:49 51°18.176 3°1.734 9.4 329 16.6 99880 42
2011-07-18 14:50 51°18.092 3°1.515 13.3 330 16.7 99900 42
2011-07-18 14:51 51°18.004 3°1.304 5.2 333 16.8 99880 41
2011-07-18 14:52 51°17.916 3°1.087 8.1 330 16.8 99880 42
2011-07-18 14:53 51°17.827 3°0.868 7.4 330 16.9 99890 42
2011-07-18 14:54 51°17.743 3°0.642 14 331 16.9 99910 42
2011-07-18 14:55 51°17.652 3°0.423 5.5 330 16.9 99900 42
2011-07-18 14:56 51°17.559 3°0.205 4.5 331 16.9 99900 42
2011-07-18 14:57 51°17.469 2°59.983 8.1 331 17 99910 42
2011-07-18 14:58 51°17.383 2°59.753 19.3 333 17 99890 43
2011-07-18 14:59 51°17.291 2°59.536 8.3 334 17 99890 43
2011-07-18 15:00 51°17.19 2°59.316 17.1 334 17 99890 41
2011-07-18 15:01 51°17.106 2°59.1 5 334 16.9 99890 42
2011-07-18 15:02 51°17.018 2°58.872 8.6 334 16.9 99890 43
2011-07-18 15:03 51°16.92 2°58.651 5.6 333 16.9 99890 42
2011-07-18 15:04 51°16.827 2°58.43 8.2 333 16.8 99900 42
2011-07-18 15:05 51°16.745 2°58.197 8.2 333 16.9 99890 43
2011-07-18 15:06 51°16.661 2°57.962 5.1 331 16.8 99890 42
2011-07-18 15:07 51°16.57 2°57.735 2.8 329 16.8 99890 43
2011-07-18 15:08 51°16.492 2°57.498 5.4 331 16.9 99900 42
2011-07-18 15:09 51°16.403 2°57.275 6.3 331 16.8 99890 42
2011-07-18 15:10 51°16.317 2°57.046 9.6 330 16.7 99890 41
2011-07-18 15:11 51°16.238 2°56.807 6.8 329 16.8 99900 42
2011-07-18 15:12 51°16.152 2°56.57 6 329 16.9 99900 42
2011-07-18 15:13 51°16.063 2°56.335 9.5 331 16.8 99900 40
2011-07-18 15:14 51°15.979 2°56.095 7.8 330 16.9 99900 41
2011-07-18 15:15 51°15.898 2°55.857 16.4 329 16.9 99910 41
2011-07-18 15:16 51°15.808 2°55.625 20.7 327 16.9 99900 42
2011-07-18 15:17 51°15.722 2°55.386 4.2 329 16.9 99890 41
2011-07-18 15:18 51°15.627 2°55.16 4.3 330 16.9 99910 41
2011-07-18 15:19 51°15.522 2°54.941 2.6 330 17 99910 43
2011-07-18 15:20 51°15.405 2°54.734 12 333 17 99910 42
2011-07-18 15:21 51°15.293 2°54.519 3.8 334 17 99910 42
2011-07-18 15:22 51°15.143 2°54.411 13.6 355 16.9 99920 42
2011-07-18 15:23 51°14.979 2°54.577 5.7 1 16.8 99920 43
2011-07-18 15:24 51°14.816 2°54.768 16.7 360 16.8 99910 42
2011-07-18 15:25 51°14.653 2°54.962 6.3 360 16.7 99900 42
2011-07-18 15:26 51°14.475 2°55.106 6.4 358 16.8 99910 43
2011-07-18 15:27 51°14.319 2°55.252 10.1 1 16.7 99920 41
2011-07-18 15:28 51°14.195 2°55.362 10.2 -999 16.8 99920 40
2011-07-18 15:29 51°14.076 2°55.454 6.9 357 16.8 99920 39
2011-07-18 15:30 51°13.959 2°55.538 10.1 348 16.9 99930 39
2011-07-18 15:31 51°13.856 2°55.613 5.9 8 16.9 99930 40
2011-07-18 15:32 51°13.764 2°55.707 7.6 10 16.9 99930 40
2011-07-18 15:33 51°13.7 2°55.818 8.7 13 16.9 99930 41
2011-07-18 15:34 51°13.661 2°55.904 7.2 17 16.9 99950 39
2011-07-18 15:35 51°13.638 2°55.985 5.8 58 16.9 99960 41
2011-07-18 15:36 51°13.634 2°56.015 6 31 16.8 99960 41